Time;durP1;ratioP1;P1;durP2;ratioP2;P2;SDS_P1;SDS_P2;PMS_P1;PMS_P2;Temp;Humidity;BMP_temperature;BMP_pressure;BME280_temperature;BME280_humidity;BME280_pressure;Samples;Min_cycle;Max_cycle;Signal;HPM_P1;HPM_P2
2022/06/29 00:00:45;;;;;;;1.60;1.50;;;26.10;68.90;;;;;;6183687;23;20379;-69
2022/06/29 00:03:14;;;;;;;3.30;2.07;;;26.10;69.70;;;;;;6183597;23;20714;-69
2022/06/29 00:05:42;;;;;;;2.50;1.80;;;26.10;69.00;;;;;;6183825;23;20375;-69
2022/06/29 00:08:10;;;;;;;2.70;2.20;;;26.10;69.10;;;;;;6182378;23;20415;-69
2022/06/29 00:10:37;;;;;;;1.80;1.70;;;26.00;69.00;;;;;;6182344;23;20364;-69
2022/06/29 00:13:04;;;;;;;1.73;1.63;;;26.00;69.10;;;;;;6182533;23;20371;-70
2022/06/29 00:15:35;;;;;;;1.73;1.50;;;26.00;69.10;;;;;;6182042;23;20407;-69
2022/06/29 00:18:02;;;;;;;1.83;1.63;;;26.00;69.30;;;;;;6181557;23;20744;-70
2022/06/29 00:20:28;;;;;;;1.63;1.53;;;26.00;69.30;;;;;;6182118;23;20419;-69
2022/06/29 00:22:54;;;;;;;1.93;1.80;;;25.90;69.20;;;;;;6183861;23;20410;-69
2022/06/29 00:25:23;;;;;;;2.20;2.00;;;25.90;69.30;;;;;;6183963;23;20368;-69
2022/06/29 00:27:49;;;;;;;2.23;1.70;;;25.90;69.30;;;;;;6157386;23;20176;-69
2022/06/29 00:30:15;;;;;;;3.00;2.07;;;25.90;69.30;;;;;;6181882;23;20949;-69
2022/06/29 00:32:41;;;;;;;2.10;1.53;;;25.90;69.40;;;;;;6182087;23;20477;-70
2022/06/29 00:35:10;;;;;;;1.93;1.60;;;25.90;69.40;;;;;;6182369;23;20407;-69
2022/06/29 00:37:36;;;;;;;1.87;1.73;;;25.80;69.40;;;;;;6180710;23;20406;-69
2022/06/29 00:40:05;;;;;;;2.20;1.87;;;25.80;69.60;;;;;;6182319;23;20392;-70
2022/06/29 00:42:32;;;;;;;2.17;1.70;;;25.80;69.60;;;;;;6182002;23;20909;-69
2022/06/29 00:45:00;;;;;;;2.77;1.70;;;25.80;69.60;;;;;;6182131;23;20463;-70
2022/06/29 00:47:29;;;;;;;2.80;1.83;;;25.70;69.60;;;;;;6181994;23;20411;-69
2022/06/29 00:49:58;;;;;;;2.87;1.93;;;25.70;69.60;;;;;;6158282;23;20850;-69
2022/06/29 00:52:25;;;;;;;2.50;1.87;;;25.70;69.70;;;;;;6182525;23;20408;-69
2022/06/29 00:55:00;;;;;;;2.53;1.80;;;25.70;69.70;;;;;;6182183;23;20402;-69
2022/06/29 00:57:30;;;;;;;2.27;1.80;;;25.70;69.80;;;;;;6183423;23;20391;-69
2022/06/29 01:00:01;;;;;;;1.70;1.50;;;25.60;69.70;;;;;;6196797;23;20545;-77
2022/06/29 01:02:32;;;;;;;2.43;2.20;;;25.60;69.80;;;;;;6213595;23;20411;-77
2022/06/29 01:04:58;;;;;;;1.70;1.60;;;25.60;69.80;;;;;;6212608;23;20430;-77
2022/06/29 01:07:26;;;;;;;2.33;2.10;;;25.60;69.90;;;;;;6213389;23;20364;-77
2022/06/29 01:09:56;;;;;;;3.10;1.67;;;25.60;70.00;;;;;;6237591;23;20383;-77
2022/06/29 01:12:27;;;;;;;2.57;2.00;;;25.50;69.90;;;;;;6212494;23;20494;-78
2022/06/29 01:14:53;;;;;;;2.03;1.83;;;25.50;69.90;;;;;;6187485;23;20371;-76
2022/06/29 01:17:21;;;;;;;2.43;2.23;;;25.50;69.90;;;;;;6187327;23;20415;-77
2022/06/29 01:19:50;;;;;;;1.80;1.57;;;25.50;69.90;;;;;;6187458;23;20425;-77
2022/06/29 01:22:20;;;;;;;2.33;2.13;;;25.50;69.90;;;;;;6186832;23;20745;-77
2022/06/29 01:24:50;;;;;;;2.30;1.60;;;25.40;69.80;;;;;;6214678;23;20432;-77
2022/06/29 01:27:20;;;;;;;2.00;1.70;;;25.40;69.80;;;;;;6189206;23;20383;-78
2022/06/29 01:29:46;;;;;;;1.90;1.73;;;25.40;69.80;;;;;;6215939;23;20450;-77
2022/06/29 01:32:13;;;;;;;2.03;1.83;;;25.40;69.80;;;;;;6215546;23;20380;-77
2022/06/29 01:34:42;;;;;;;3.10;1.87;;;25.40;69.90;;;;;;6189483;23;20733;-77
2022/06/29 01:37:07;;;;;;;2.93;1.90;;;25.40;69.90;;;;;;6213839;23;20402;-77
2022/06/29 01:39:39;;;;;;;2.13;1.73;;;25.30;69.80;;;;;;6215987;23;20403;-76
2022/06/29 01:42:06;;;;;;;2.33;1.63;;;25.30;69.80;;;;;;6213880;23;20446;-77
2022/06/29 01:44:33;;;;;;;2.57;1.90;;;25.30;69.90;;;;;;6188915;23;20391;-76
2022/06/29 01:47:05;;;;;;;3.10;1.97;;;25.30;70.00;;;;;;6215655;23;20368;-77
2022/06/29 01:49:31;;;;;;;2.00;1.73;;;25.30;70.00;;;;;;6163983;23;20420;-77
2022/06/29 01:51:57;;;;;;;2.63;2.00;;;25.20;70.00;;;;;;6214152;23;20398;-77
2022/06/29 01:54:26;;;;;;;2.90;1.77;;;25.20;70.00;;;;;;6189864;23;20842;-77
2022/06/29 01:56:52;;;;;;;3.57;2.13;;;25.20;70.10;;;;;;6214294;23;20372;-77
2022/06/29 01:59:21;;;;;;;2.60;1.80;;;25.20;70.10;;;;;;6214050;23;20418;-77
2022/06/29 02:01:49;;;;;;;2.37;1.90;;;25.20;70.20;;;;;;6214124;23;20420;-77
2022/06/29 02:04:15;;;;;;;3.80;1.80;;;25.20;70.30;;;;;;6215649;23;20374;-77
2022/06/29 02:06:41;;;;;;;1.90;1.70;;;25.10;70.20;;;;;;6213765;23;20353;-77
2022/06/29 02:09:09;;;;;;;2.13;1.97;;;25.10;70.20;;;;;;6213796;23;20406;-77
2022/06/29 02:11:36;;;;;;;2.17;1.90;;;25.10;70.20;;;;;;6214161;23;20485;-77
2022/06/29 02:14:01;;;;;;;1.83;1.73;;;25.10;70.20;;;;;;6188807;23;20414;-77
2022/06/29 02:16:30;;;;;;;2.40;1.80;;;25.00;70.20;;;;;;6213950;23;20403;-77
2022/06/29 02:18:58;;;;;;;1.97;1.80;;;25.00;70.20;;;;;;6213619;23;20403;-77
2022/06/29 02:21:24;;;;;;;2.90;2.10;;;25.00;70.30;;;;;;6215454;23;20746;-77
2022/06/29 02:23:52;;;;;;;2.90;1.87;;;25.00;71.10;;;;;;6239184;23;20410;-77
2022/06/29 02:26:19;;;;;;;1.90;1.60;;;25.00;70.40;;;;;;6215380;23;20399;-77
2022/06/29 02:28:45;;;;;;;3.03;1.97;;;25.00;70.40;;;;;;6214975;23;20393;-76
2022/06/29 02:36:47;;;;;;;1.77;1.63;;;24.90;70.50;;;;;;6215064;23;20415;-77
2022/06/29 02:39:13;;;;;;;2.30;1.60;;;24.90;70.70;;;;;;6214288;23;20395;-77
2022/06/29 02:41:39;;;;;;;2.03;1.80;;;24.90;70.70;;;;;;6214901;23;20790;-76
2022/06/29 02:44:08;;;;;;;1.93;1.73;;;24.90;70.70;;;;;;6189838;23;20402;-77
2022/06/29 02:46:34;;;;;;;2.20;1.93;;;24.90;70.80;;;;;;6214857;23;20434;-77
2022/06/29 02:49:02;;;;;;;2.10;1.90;;;24.80;70.70;;;;;;6214930;23;20407;-77
2022/06/29 02:51:32;;;;;;;1.73;1.60;;;24.80;70.80;;;;;;6190538;23;20360;-77
2022/06/29 02:54:01;;;;;;;2.33;1.70;;;24.80;70.80;;;;;;6190177;23;20415;-76
2022/06/29 02:56:29;;;;;;;1.70;1.60;;;24.80;70.90;;;;;;6214865;23;20858;-77
2022/06/29 02:58:55;;;;;;;3.40;1.90;;;24.70;70.70;;;;;;6216299;23;20418;-77
2022/06/29 03:01:24;;;;;;;2.10;1.50;;;24.70;70.80;;;;;;6190353;23;21005;-77
2022/06/29 03:03:52;;;;;;;2.40;1.93;;;24.70;70.80;;;;;;6189790;23;20414;-77
2022/06/29 03:06:20;;;;;;;2.20;1.90;;;24.70;70.80;;;;;;6214627;23;20363;-77
2022/06/29 03:08:48;;;;;;;2.20;2.00;;;24.70;70.90;;;;;;6214646;23;20453;-77
2022/06/29 03:11:17;;;;;;;2.20;1.90;;;24.70;71.00;;;;;;6216041;23;20367;-77
2022/06/29 03:13:43;;;;;;;2.90;1.87;;;24.60;70.90;;;;;;6164792;23;20433;-77
2022/06/29 03:16:09;;;;;;;2.23;1.93;;;24.60;71.00;;;;;;6239892;23;20387;-77
2022/06/29 03:18:35;;;;;;;3.70;1.87;;;24.60;71.00;;;;;;6214579;23;20415;-77
2022/06/29 03:21:01;;;;;;;2.13;1.93;;;24.60;71.10;;;;;;6189598;23;20478;-76
2022/06/29 03:23:33;;;;;;;2.20;1.80;;;24.60;71.10;;;;;;6189917;23;20638;-76
2022/06/29 03:26:03;;;;;;;2.10;1.90;;;24.60;71.10;;;;;;6239724;23;20529;-77
2022/06/29 03:28:29;;;;;;;1.80;1.70;;;24.50;71.10;;;;;;6214357;23;20400;-77
2022/06/29 03:30:55;;;;;;;1.83;1.73;;;24.50;71.10;;;;;;6189254;23;20394;-77
2022/06/29 03:33:21;;;;;;;2.40;2.20;;;24.50;71.20;;;;;;6214528;23;20373;-77
2022/06/29 03:35:48;;;;;;;2.53;2.33;;;24.50;71.20;;;;;;6189466;23;20403;-77
2022/06/29 03:38:14;;;;;;;1.93;1.63;;;24.50;71.30;;;;;;6189199;23;20450;-77
2022/06/29 03:40:40;;;;;;;2.27;2.07;;;24.50;71.30;;;;;;6189430;23;20391;-77
2022/06/29 03:43:09;;;;;;;2.00;1.70;;;24.40;71.20;;;;;;6190037;23;20481;-77
2022/06/29 03:45:36;;;;;;;3.07;2.00;;;24.40;71.20;;;;;;6214504;23;20697;-77
2022/06/29 03:48:05;;;;;;;2.37;2.00;;;24.40;71.30;;;;;;6213906;23;20434;-77
2022/06/29 03:50:31;;;;;;;3.07;2.23;;;24.40;71.30;;;;;;6189469;23;20692;-77
2022/06/29 03:52:59;;;;;;;2.63;2.10;;;24.40;71.30;;;;;;6214366;23;20375;-77
2022/06/29 03:55:30;;;;;;;2.43;2.10;;;24.40;71.40;;;;;;6214481;23;20784;-77
2022/06/29 03:57:56;;;;;;;2.03;1.80;;;24.30;71.40;;;;;;6214172;23;20399;-77
2022/06/29 04:00:22;;;;;;;1.80;1.70;;;24.30;71.30;;;;;;6215490;23;20783;-77
2022/06/29 04:02:53;;;;;;;2.07;1.90;;;24.30;71.40;;;;;;6215562;23;20745;-77
2022/06/29 04:05:19;;;;;;;2.60;2.37;;;24.30;71.40;;;;;;6189006;23;20426;-77
2022/06/29 04:07:50;;;;;;;2.20;1.73;;;24.30;71.50;;;;;;6215502;23;20391;-77
2022/06/29 04:10:18;;;;;;;2.67;2.03;;;24.20;71.40;;;;;;6215707;23;20371;-77
2022/06/29 04:12:44;;;;;;;2.13;1.93;;;24.20;71.40;;;;;;6215527;23;20368;-76
2022/06/29 04:15:13;;;;;;;2.33;2.13;;;24.20;71.50;;;;;;6215733;23;20675;-77
2022/06/29 04:17:39;;;;;;;4.33;2.10;;;24.20;71.50;;;;;;6188944;23;20494;-77
2022/06/29 04:20:06;;;;;;;3.57;2.20;;;24.20;71.50;;;;;;6189092;23;20714;-76
2022/06/29 04:22:36;;;;;;;2.00;1.70;;;24.20;71.60;;;;;;6188989;23;20427;-77
2022/06/29 04:25:02;;;;;;;3.73;1.70;;;24.20;71.60;;;;;;6214078;23;20477;-77
2022/06/29 04:27:31;;;;;;;3.30;2.03;;;24.10;71.50;;;;;;6188745;23;20387;-76
2022/06/29 04:29:59;;;;;;;2.00;1.80;;;24.10;71.60;;;;;;6213755;23;20437;-77
2022/06/29 04:32:30;;;;;;;2.37;2.13;;;24.10;71.60;;;;;;6189349;23;20765;-77
2022/06/29 04:34:56;;;;;;;1.90;1.70;;;24.10;71.60;;;;;;6214038;23;20371;-77
2022/06/29 04:37:22;;;;;;;3.30;2.37;;;24.10;71.60;;;;;;6238825;23;20905;-77
2022/06/29 04:39:47;;;;;;;2.97;2.50;;;24.10;71.70;;;;;;6213556;23;20399;-77
2022/06/29 04:42:14;;;;;;;3.70;2.07;;;24.10;71.80;;;;;;6213622;23;20481;-77
2022/06/29 04:44:40;;;;;;;2.93;2.10;;;24.10;71.80;;;;;;6213776;23;20737;-76
2022/06/29 04:47:06;;;;;;;2.80;2.13;;;24.00;71.80;;;;;;6216310;23;20391;-77
2022/06/29 04:49:32;;;;;;;4.60;2.27;;;24.00;71.70;;;;;;6213894;23;20215;-76
2022/06/29 04:52:00;;;;;;;2.43;1.97;;;24.00;71.80;;;;;;6213689;23;20391;-77
2022/06/29 04:54:26;;;;;;;2.27;2.07;;;24.00;71.80;;;;;;6188589;23;20854;-77
2022/06/29 04:56:52;;;;;;;2.93;1.83;;;23.90;71.80;;;;;;6215056;23;20378;-77
2022/06/29 04:59:20;;;;;;;3.40;2.07;;;23.90;71.80;;;;;;6215496;23;20433;-77
2022/06/29 05:01:51;;;;;;;2.00;1.80;;;23.90;71.90;;;;;;6166575;23;20429;-76
2022/06/29 05:04:17;;;;;;;2.77;2.13;;;23.90;71.90;;;;;;6190618;23;20372;-77
2022/06/29 05:06:46;;;;;;;2.40;2.03;;;23.90;71.90;;;;;;6215934;23;20366;-77
2022/06/29 05:09:12;;;;;;;2.37;2.03;;;23.90;72.00;;;;;;6190455;23;20486;-77
2022/06/29 05:11:38;;;;;;;2.40;2.20;;;23.90;72.10;;;;;;6190620;23;20426;-77
2022/06/29 05:14:06;;;;;;;2.43;2.27;;;23.90;72.00;;;;;;6240914;23;20261;-77
2022/06/29 05:16:32;;;;;;;2.60;2.10;;;23.80;72.00;;;;;;6217191;23;20450;-77
2022/06/29 05:19:00;;;;;;;2.10;1.93;;;23.80;72.10;;;;;;6215241;23;20437;-77
2022/06/29 05:21:26;;;;;;;3.00;2.10;;;23.80;72.10;;;;;;6215468;23;20462;-77
2022/06/29 05:23:55;;;;;;;3.87;1.97;;;23.80;72.20;;;;;;6190467;23;20387;-77
2022/06/29 05:26:20;;;;;;;3.10;2.17;;;23.80;72.20;;;;;;6215440;23;20148;-77
2022/06/29 05:28:49;;;;;;;2.03;1.83;;;23.80;72.30;;;;;;6216064;23;20801;-77
2022/06/29 05:31:18;;;;;;;2.00;1.83;;;23.80;72.30;;;;;;6215143;23;20405;-77
2022/06/29 05:33:46;;;;;;;2.93;2.40;;;23.80;72.30;;;;;;6190703;23;20383;-77
2022/06/29 05:36:15;;;;;;;2.20;2.00;;;23.80;72.40;;;;;;6217030;23;20374;-77
2022/06/29 05:38:43;;;;;;;2.43;2.23;;;23.80;72.40;;;;;;6215280;23;20410;-77
2022/06/29 05:41:12;;;;;;;2.90;2.23;;;23.70;72.40;;;;;;6190256;23;20440;-77
2022/06/29 05:43:40;;;;;;;3.13;2.63;;;23.80;72.50;;;;;;6240592;23;20379;-77
2022/06/29 05:46:06;;;;;;;4.33;2.63;;;23.70;72.50;;;;;;6215464;23;20366;-76
2022/06/29 05:48:32;;;;;;;3.50;2.27;;;23.80;72.70;;;;;;6215338;23;20888;-77
2022/06/29 05:50:58;;;;;;;4.33;2.27;;;23.70;72.60;;;;;;6189918;23;20402;-76
2022/06/29 05:53:24;;;;;;;3.13;2.33;;;23.70;72.60;;;;;;6215965;23;20410;-76
2022/06/29 05:55:50;;;;;;;2.90;2.30;;;23.70;72.70;;;;;;6216446;23;20371;-77
2022/06/29 05:58:19;;;;;;;2.03;1.93;;;23.70;73.30;;;;;;6214596;23;20407;-77
2022/06/29 06:00:48;;;;;;;2.80;2.27;;;23.70;72.80;;;;;;6216705;23;20396;-77
2022/06/29 06:03:17;;;;;;;3.57;2.07;;;23.70;72.90;;;;;;6189689;23;20766;-76
2022/06/29 06:05:48;;;;;;;2.70;2.50;;;23.70;73.00;;;;;;6214524;23;20379;-76
2022/06/29 06:08:17;;;;;;;2.30;2.10;;;23.70;73.00;;;;;;6214737;23;20804;-76
2022/06/29 06:10:45;;;;;;;4.57;2.47;;;23.70;73.10;;;;;;6214225;23;20372;-77
2022/06/29 06:13:11;;;;;;;5.80;2.40;;;23.70;73.20;;;;;;6189514;23;20391;-77
2022/06/29 06:15:38;;;;;;;2.30;2.10;;;23.60;73.20;;;;;;6215885;23;20368;-77
2022/06/29 06:18:07;;;;;;;4.83;2.77;;;23.60;73.20;;;;;;6189104;23;20417;-77
2022/06/29 06:20:33;;;;;;;3.13;1.73;;;23.60;73.30;;;;;;6214606;23;20426;-76
2022/06/29 06:23:01;;;;;;;2.80;2.50;;;23.60;73.30;;;;;;6214075;23;20518;-76
2022/06/29 06:25:28;;;;;;;2.50;2.13;;;23.60;73.40;;;;;;6215838;23;20478;-76
2022/06/29 06:27:53;;;;;;;3.70;2.10;;;23.60;73.40;;;;;;6189325;23;20474;-76
2022/06/29 06:30:25;;;;;;;3.57;2.50;;;23.60;73.50;;;;;;6214291;23;20438;-76
2022/06/29 06:32:57;;;;;;;2.60;2.23;;;23.60;73.50;;;;;;6214327;23;20742;-76
2022/06/29 06:35:24;;;;;;;3.37;2.60;;;23.60;73.60;;;;;;6214443;23;20363;-76
2022/06/29 06:37:52;;;;;;;3.00;2.37;;;23.60;73.60;;;;;;6237458;23;20751;-76
2022/06/29 06:43:03;;;;;;;4.30;2.67;;;23.60;73.80;;;;;;6214347;23;20463;-76
2022/06/29 06:45:31;;;;;;;2.50;2.23;;;23.60;73.90;;;;;;6214895;23;20417;-76
2022/06/29 06:47:57;;;;;;;4.53;2.33;;;23.50;73.80;;;;;;6213205;23;20477;-76
2022/06/29 06:50:26;;;;;;;4.20;2.40;;;23.50;73.80;;;;;;6213226;23;20941;-76
2022/06/29 06:52:52;;;;;;;3.00;2.70;;;23.50;73.80;;;;;;6214008;23;20399;-76
2022/06/29 06:55:18;;;;;;;4.53;2.60;;;23.50;73.90;;;;;;6188792;23;20401;-76
2022/06/29 06:57:47;;;;;;;4.83;3.00;;;23.50;73.90;;;;;;6188506;23;20399;-76
2022/06/29 07:00:13;;;;;;;3.50;2.10;;;23.50;74.00;;;;;;6213821;23;20719;-76
2022/06/29 07:02:42;;;;;;;4.50;2.30;;;23.50;74.00;;;;;;6215368;23;20411;-76
2022/06/29 07:05:10;;;;;;;2.40;2.20;;;23.50;74.10;;;;;;6238894;23;20851;-76
2022/06/29 07:07:36;;;;;;;2.57;2.10;;;23.50;74.10;;;;;;6213572;23;20367;-76
2022/06/29 07:10:03;;;;;;;2.90;2.60;;;23.50;74.10;;;;;;6214539;23;20393;-76
2022/06/29 07:12:29;;;;;;;2.30;2.10;;;23.50;74.10;;;;;;6213853;23;20383;-76
2022/06/29 07:14:57;;;;;;;4.80;2.20;;;23.50;74.20;;;;;;6188122;23;20820;-76
2022/06/29 07:17:23;;;;;;;2.90;2.10;;;23.60;74.20;;;;;;6215235;23;20368;-76
2022/06/29 07:19:49;;;;;;;2.20;2.00;;;23.60;74.20;;;;;;6238954;23;20450;-76
2022/06/29 07:22:17;;;;;;;2.57;2.37;;;23.50;74.20;;;;;;6238320;23;20434;-76
2022/06/29 07:24:43;;;;;;;3.83;2.63;;;23.50;74.20;;;;;;6188399;23;20380;-76
2022/06/29 07:27:12;;;;;;;2.40;2.20;;;23.50;74.10;;;;;;6213562;23;20355;-76
2022/06/29 07:29:43;;;;;;;2.60;2.40;;;23.50;74.10;;;;;;6213907;23;20767;-76
2022/06/29 07:32:09;;;;;;;3.50;2.20;;;23.60;74.20;;;;;;6213326;23;20379;-76
2022/06/29 07:34:35;;;;;;;3.13;2.23;;;23.50;74.00;;;;;;6215125;23;20395;-76
2022/06/29 07:37:03;;;;;;;2.53;2.33;;;23.50;74.00;;;;;;6213346;23;20387;-76
2022/06/29 07:39:30;;;;;;;2.57;2.37;;;23.50;74.00;;;;;;6214705;23;20738;-76
2022/06/29 07:41:58;;;;;;;2.60;2.17;;;23.60;74.10;;;;;;6214953;23;20426;-76
2022/06/29 07:44:26;;;;;;;2.50;2.30;;;23.60;74.10;;;;;;6188350;23;20449;-76
2022/06/29 07:46:54;;;;;;;2.70;2.50;;;23.50;74.00;;;;;;6238594;23;20466;-76
2022/06/29 07:49:20;;;;;;;3.27;2.30;;;23.50;74.00;;;;;;6188123;23;20407;-76
2022/06/29 07:51:49;;;;;;;2.60;2.40;;;23.60;74.00;;;;;;6213219;23;20367;-76
2022/06/29 07:54:17;;;;;;;1.83;1.73;;;23.60;74.10;;;;;;6188127;23;20419;-76
2022/06/29 07:56:43;;;;;;;2.87;2.40;;;23.50;74.10;;;;;;6188098;23;20399;-77
2022/06/29 07:59:09;;;;;;;2.70;2.50;;;23.60;74.20;;;;;;6213272;23;20502;-76
2022/06/29 08:01:36;;;;;;;2.63;2.43;;;23.50;74.10;;;;;;6213264;23;20948;-76
2022/06/29 08:04:06;;;;;;;2.57;2.37;;;23.50;74.10;;;;;;6214692;23;20364;-76
2022/06/29 08:06:37;;;;;;;2.47;2.27;;;23.50;74.10;;;;;;6213148;23;20426;-76
2022/06/29 08:09:03;;;;;;;2.57;2.37;;;23.50;74.10;;;;;;6214826;23;20426;-76
2022/06/29 08:11:29;;;;;;;2.83;2.50;;;23.50;74.10;;;;;;6188966;23;20438;-76
2022/06/29 08:13:55;;;;;;;4.30;2.93;;;23.50;74.20;;;;;;6214762;23;20411;-76
2022/06/29 08:16:24;;;;;;;2.80;2.50;;;23.60;74.40;;;;;;6213278;23;20384;-76
2022/06/29 08:18:52;;;;;;;3.10;2.53;;;23.50;74.20;;;;;;6188310;23;20507;-76
2022/06/29 08:21:20;;;;;;;3.67;2.30;;;23.50;74.30;;;;;;6163804;23;20415;-76
2022/06/29 08:23:48;;;;;;;4.63;2.60;;;23.50;74.40;;;;;;6188152;23;20430;-76
2022/06/29 08:26:14;;;;;;;2.47;2.27;;;23.50;74.40;;;;;;6213188;23;20403;-76
2022/06/29 08:28:40;;;;;;;3.33;2.40;;;23.50;74.50;;;;;;6238307;23;20407;-76
2022/06/29 08:31:06;;;;;;;3.20;2.80;;;23.50;74.50;;;;;;6213173;23;20434;-76
2022/06/29 08:33:37;;;;;;;2.70;2.30;;;23.60;74.70;;;;;;6188235;23;20195;-76
2022/06/29 08:36:03;;;;;;;3.63;2.37;;;23.50;75.40;;;;;;6214753;23;20367;-76
2022/06/29 08:38:33;;;;;;;2.70;2.50;;;23.60;74.70;;;;;;6213289;23;20391;-76
2022/06/29 08:41:00;;;;;;;4.63;2.23;;;23.50;74.70;;;;;;6188242;23;20360;-76
2022/06/29 08:43:26;;;;;;;3.07;2.10;;;23.60;74.80;;;;;;6213345;23;20455;-76
2022/06/29 08:45:56;;;;;;;3.33;2.67;;;23.60;74.90;;;;;;6188919;23;20541;-76
2022/06/29 08:48:22;;;;;;;2.10;1.87;;;23.60;75.00;;;;;;6187870;23;20529;-76
2022/06/29 08:50:53;;;;;;;3.83;2.33;;;23.60;74.90;;;;;;6213154;23;20427;-76
2022/06/29 08:53:21;;;;;;;2.47;2.27;;;23.60;74.90;;;;;;6238561;23;20410;-76
2022/06/29 08:55:57;;;;;;;2.83;2.40;;;23.60;74.90;;;;;;6213253;23;20374;-76
2022/06/29 08:58:25;;;;;;;4.90;2.47;;;23.60;74.90;;;;;;6188397;23;20873;-76
2022/06/29 09:00:55;;;;;;;3.40;3.10;;;23.60;75.00;;;;;;6188006;23;20378;-76
2022/06/29 09:03:22;;;;;;;2.50;2.30;;;23.60;75.00;;;;;;6188053;23;20481;-77
2022/06/29 09:06:01;;;;;;;4.63;2.23;;;23.60;75.00;;;;;;6213302;23;20364;-76
2022/06/29 09:08:31;;;;;;;3.20;2.30;;;23.60;75.00;;;;;;6180895;23;20447;-88
2022/06/29 09:10:57;;;;;;;2.70;2.50;;;23.60;75.00;;;;;;6211843;23;20390;-88
2022/06/29 09:13:24;;;;;;;3.10;2.40;;;23.60;74.90;;;;;;6186146;23;20467;-90
2022/06/29 09:15:59;;;;;;;2.57;2.17;;;23.60;74.90;;;;;;6187634;23;20486;-91
2022/06/29 09:18:32;;;;;;;2.70;2.50;;;23.60;74.90;;;;;;6187724;23;20658;-88
2022/06/29 09:21:03;;;;;;;2.50;2.30;;;23.60;75.00;;;;;;6186541;23;20400;-89
2022/06/29 09:23:35;;;;;;;2.33;2.20;;;23.60;74.90;;;;;;6212056;23;20383;-90
2022/06/29 09:26:03;;;;;;;2.70;2.47;;;23.60;74.90;;;;;;6211741;23;20383;-90
2022/06/29 09:28:33;;;;;;;3.07;2.77;;;23.60;74.90;;;;;;6187768;23;20353;-90
2022/06/29 09:31:06;;;;;;;2.40;2.20;;;23.60;75.00;;;;;;6138831;23;20372;-90
2022/06/29 09:33:33;;;;;;;3.47;3.17;;;23.60;74.90;;;;;;6187079;23;20438;-90
2022/06/29 09:36:07;;;;;;;2.47;2.27;;;23.60;74.90;;;;;;6211543;23;20381;-90
2022/06/29 09:38:38;;;;;;;3.13;2.43;;;23.60;74.80;;;;;;6211241;23;20426;-90
2022/06/29 09:41:10;;;;;;;2.60;2.40;;;23.60;74.90;;;;;;6187642;23;20800;-89
2022/06/29 09:43:46;;;;;;;3.00;2.30;;;23.60;74.90;;;;;;6186689;23;20376;-89
2022/06/29 09:46:16;;;;;;;3.50;2.70;;;23.60;74.90;;;;;;6212826;23;20407;-90
2022/06/29 09:48:43;;;;;;;2.57;2.33;;;23.60;74.80;;;;;;6213552;23;20724;-89
2022/06/29 09:51:31;;;;;;;2.50;2.30;;;23.60;74.90;;;;;;6213308;23;20384;-90
2022/06/29 09:54:06;;;;;;;2.63;2.30;;;23.60;74.90;;;;;;6213244;23;20395;-90
2022/06/29 09:56:33;;;;;;;2.57;2.37;;;23.60;74.80;;;;;;6212505;23;20427;-88
2022/06/29 09:59:01;;;;;;;2.60;2.37;;;23.60;74.80;;;;;;6138816;23;20411;-89
2022/06/29 10:04:13;;;;;;;5.03;3.10;;;23.60;74.80;;;;;;6188032;23;20384;-89
2022/06/29 10:06:39;;;;;;;2.70;2.50;;;23.60;74.70;;;;;;6213040;23;20388;-91
2022/06/29 10:09:06;;;;;;;2.60;2.40;;;23.60;74.80;;;;;;6210225;23;20475;-87
2022/06/29 10:14:45;;;;;;;3.17;2.60;;;23.60;74.90;;;;;;6193137;23;20408;-89
2022/06/29 10:17:40;;;;;;;2.50;2.20;;;23.70;75.00;;;;;;6168377;23;20515;-91
2022/06/29 10:20:33;;;;;;;2.67;2.47;;;23.70;75.00;;;;;;6193079;23;20414;-89
2022/06/29 10:22:59;;;;;;;2.60;2.20;;;23.70;74.90;;;;;;6218878;23;20722;-90
2022/06/29 10:25:28;;;;;;;3.27;2.60;;;23.70;75.00;;;;;;6218084;23;20403;-90
2022/06/29 10:28:23;;;;;;;2.83;2.53;;;23.70;74.90;;;;;;6218205;23;20700;-91
2022/06/29 10:30:49;;;;;;;3.60;2.50;;;23.70;74.90;;;;;;6165921;23;20396;-90
2022/06/29 10:33:32;;;;;;;3.93;2.63;;;23.70;74.90;;;;;;6193390;23;20364;-90
2022/06/29 10:36:08;;;;;;;4.47;3.00;;;23.70;74.80;;;;;;6219164;23;20372;-89
2022/06/29 10:39:04;;;;;;;3.07;2.77;;;23.70;74.80;;;;;;6193354;23;20384;-90
2022/06/29 10:47:55;;;;;;;3.33;3.03;;;23.80;74.80;;;;;;6218794;23;20439;-90
2022/06/29 10:50:25;;;;;;;2.87;2.67;;;23.80;74.80;;;;;;6218179;23;20478;-89
2022/06/29 10:53:04;;;;;;;2.80;2.60;;;23.80;74.70;;;;;;6218987;23;20454;-90
2022/06/29 10:55:36;;;;;;;2.90;2.70;;;23.80;74.70;;;;;;6219336;23;20403;-91
2022/06/29 10:58:05;;;;;;;3.07;2.83;;;23.80;74.70;;;;;;6218107;23;20383;-90
2022/06/29 11:00:39;;;;;;;3.00;2.70;;;23.80;74.80;;;;;;6219086;23;20399;-87
2022/06/29 11:03:10;;;;;;;3.90;3.00;;;23.80;74.70;;;;;;6192738;23;20426;-91
2022/06/29 11:14:01;;;;;;;3.30;3.00;;;23.90;74.80;;;;;;6192865;23;20407;-90
2022/06/29 11:16:34;;;;;;;2.80;2.50;;;23.90;74.80;;;;;;6192858;23;20858;-89
2022/06/29 11:19:03;;;;;;;3.70;3.40;;;23.90;74.90;;;;;;6168077;23;20445;-90
2022/06/29 11:21:30;;;;;;;3.00;2.80;;;24.00;75.80;;;;;;6218913;23;20462;-91
2022/06/29 11:23:58;;;;;;;3.37;2.83;;;24.00;75.00;;;;;;6218928;23;20458;-90
2022/06/29 11:26:29;;;;;;;3.27;3.07;;;24.00;75.10;;;;;;6217974;23;20485;-91
2022/06/29 11:28:57;;;;;;;3.83;2.77;;;24.00;75.10;;;;;;6192947;23;20399;-89
2022/06/29 11:31:26;;;;;;;3.37;3.07;;;24.10;75.30;;;;;;6168346;23;20376;-91
2022/06/29 11:33:55;;;;;;;2.83;2.50;;;24.10;75.40;;;;;;6217625;23;20403;-92
2022/06/29 11:36:27;;;;;;;3.97;3.57;;;24.10;75.30;;;;;;6192485;23;20476;-91
2022/06/29 11:39:03;;;;;;;3.03;2.83;;;24.10;75.30;;;;;;6217454;23;20380;-91
2022/06/29 11:44:27;;;;;;;3.50;3.20;;;24.20;75.30;;;;;;6218720;23;20422;-90
2022/06/29 11:46:56;;;;;;;4.60;3.20;;;24.20;75.30;;;;;;6192681;23;20407;-90
2022/06/29 11:49:38;;;;;;;5.33;3.33;;;24.20;75.20;;;;;;6192471;23;20398;-91
2022/06/29 11:52:06;;;;;;;3.10;2.80;;;24.20;75.10;;;;;;6218081;23;20856;-89
2022/06/29 11:54:49;;;;;;;3.97;3.63;;;24.30;75.20;;;;;;6218568;23;20414;-91
2022/06/29 11:57:20;;;;;;;3.10;2.90;;;24.30;75.20;;;;;;6192775;23;20516;-91
2022/06/29 11:59:47;;;;;;;3.47;3.20;;;24.30;75.10;;;;;;6193002;23;20411;-91
2022/06/29 12:02:16;;;;;;;3.50;3.20;;;24.40;75.20;;;;;;6192564;23;20435;-91
2022/06/29 12:04:44;;;;;;;3.30;3.10;;;24.40;75.20;;;;;;6192446;23;20394;-90
2022/06/29 12:07:16;;;;;;;3.50;3.20;;;24.40;75.10;;;;;;6192567;23;20371;-89
2022/06/29 12:09:46;;;;;;;3.80;3.50;;;24.40;75.10;;;;;;6192271;23;20407;-91
2022/06/29 12:12:15;;;;;;;4.80;3.40;;;24.50;75.30;;;;;;6192426;23;20472;-91
2022/06/29 12:14:42;;;;;;;3.70;3.40;;;24.50;75.30;;;;;;6192458;23;20453;-90
2022/06/29 12:17:09;;;;;;;3.53;2.97;;;24.50;75.30;;;;;;6192605;23;20396;-91
2022/06/29 12:19:38;;;;;;;3.20;2.90;;;24.50;75.30;;;;;;6167491;23;20831;-89
2022/06/29 12:22:07;;;;;;;3.30;3.10;;;24.60;75.40;;;;;;6218345;23;20429;-91
2022/06/29 12:24:35;;;;;;;3.27;2.90;;;24.60;75.30;;;;;;6192364;23;20465;-91
2022/06/29 12:27:03;;;;;;;3.20;3.00;;;24.60;75.10;;;;;;6217246;23;20387;-90
2022/06/29 12:29:31;;;;;;;4.20;3.50;;;24.70;75.10;;;;;;6217012;23;20494;-91
2022/06/29 12:31:57;;;;;;;3.90;3.60;;;24.70;75.00;;;;;;6218472;23;20392;-92
2022/06/29 12:34:28;;;;;;;3.60;3.00;;;24.70;74.90;;;;;;6218072;23;20394;-91
2022/06/29 12:36:54;;;;;;;3.50;3.20;;;24.70;74.90;;;;;;6191723;23;20384;-91
2022/06/29 12:39:25;;;;;;;3.60;3.30;;;24.70;74.80;;;;;;6192024;23;20439;-92
2022/06/29 12:41:52;;;;;;;3.97;3.37;;;24.80;74.80;;;;;;6218065;23;20462;-91
2022/06/29 12:44:18;;;;;;;3.60;3.30;;;24.80;74.80;;;;;;6218457;23;20437;-91
2022/06/29 12:46:44;;;;;;;3.57;3.20;;;24.90;74.80;;;;;;6218050;23;20380;-91
2022/06/29 12:49:10;;;;;;;4.90;3.40;;;24.90;74.70;;;;;;6170173;23;20394;-92
2022/06/29 12:51:41;;;;;;;3.80;3.40;;;24.90;73.90;;;;;;6220694;23;20152;-91
2022/06/29 12:54:09;;;;;;;3.33;3.03;;;25.00;73.40;;;;;;6194898;23;20721;-91
2022/06/29 12:56:39;;;;;;;4.30;3.30;;;25.00;73.40;;;;;;6194233;23;20466;-92
2022/06/29 12:59:08;;;;;;;6.53;3.97;;;25.10;73.40;;;;;;6219745;23;20977;-90
2022/06/29 13:01:34;;;;;;;12.30;3.00;;;25.10;73.30;;;;;;6194050;23;20435;-91
2022/06/29 13:04:00;;;;;;;3.70;3.40;;;25.10;73.30;;;;;;6220049;23;20728;-89
2022/06/29 13:06:25;;;;;;;5.83;3.63;;;25.10;73.30;;;;;;6218972;23;20379;-92
2022/06/29 13:08:59;;;;;;;4.10;3.80;;;25.10;73.30;;;;;;6193996;23;20454;-91
2022/06/29 13:11:25;;;;;;;6.97;3.50;;;25.20;74.10;;;;;;6193967;23;20690;-91
2022/06/29 13:13:51;;;;;;;3.23;2.93;;;25.20;73.30;;;;;;6221900;23;20387;-91
2022/06/29 13:16:18;;;;;;;3.60;3.30;;;25.20;73.20;;;;;;6219137;23;20406;-91
2022/06/29 13:18:44;;;;;;;4.27;3.87;;;25.20;73.20;;;;;;6193893;23;20458;-92
2022/06/29 13:21:10;;;;;;;3.50;3.20;;;25.20;73.20;;;;;;6219912;23;20492;-93
2022/06/29 13:23:39;;;;;;;4.83;3.20;;;25.30;73.20;;;;;;6195665;23;20905;-91
2022/06/29 13:26:05;;;;;;;3.53;3.20;;;25.30;73.20;;;;;;6220217;23;20459;-92